CheckWX is a tool to help pilots better visualize weather data.  It is not intended as a substitute for an official pre-flight weather briefing.

21:03:08 UTC

KMCC TAF
Mc Clellan Airfield Airport
Sacramento, California, USA
KMCC 181729Z 1818/1918 VRB05KT P6SM FEW250

Apr-18@
18:00 UTC

Apr-18 @ 18:00 UTC

Apr-19@
18:00 UTC

Apr-19 @ 18:00 UTC

KMCC 181729Z 1818/1918 VRB05KT P6SM FEW250
Wind
  • Variable at 5 KTS
Cloud Levels
  • Few at 25,000' AGL